CheckWX is a tool to help pilots better visualize weather data.  It is not intended as a substitute for an official pre-flight weather briefing.

21:57:01 UTC

KCHO TAF
Charlottesville-Albemarle Airport
Charlottesville, Virginia, USA
KCHO 202031Z 2021/2118 VRB03KT P6SM SCT150 BKN250 FM202300 13006KT P6SM BKN070 FM210600 VRB03KT 5SM RA BKN020 FM210900 VRB03KT 3SM RA BKN008 OVC020 FM211400 33004KT 5SM -RA OVC030

Mar-20@
21:00 UTC

Mar-20 @ 21:00 UTC

Mar-20@
23:00 UTC

Mar-20 @ 23:00 UTC

KCHO 202031Z 2021/2118 VRB03KT P6SM SCT150 BKN250
Wind
  • Variable at 3 KTS
Cloud Levels
  • Scattered at 15,000' AGL
  • Broken at 25,000' AGL

Mar-20@
23:00 UTC

Mar-20 @ 23:00 UTC

Mar-21@
06:00 UTC

Mar-21 @ 06:00 UTC

FM202300 13006KT P6SM BKN070

From

From Standard forecast or significant change

Wind
  • 130° at 6 KTS
Cloud Levels
  • Broken at 7,000' AGL

Mar-21@
06:00 UTC

Mar-21 @ 06:00 UTC

Mar-21@
09:00 UTC

Mar-21 @ 09:00 UTC

FM210600 VRB03KT 5SM RA BKN020

From

From Standard forecast or significant change

Wind
  • Variable at 3 KTS
Conditions
Rain
Cloud Levels
  • Broken at 2,000' AGL

Mar-21@
09:00 UTC

Mar-21 @ 09:00 UTC

Mar-21@
14:00 UTC

Mar-21 @ 14:00 UTC

FM210900 VRB03KT 3SM RA BKN008 OVC020

From

From Standard forecast or significant change

Wind
  • Variable at 3 KTS
Conditions
Rain
Cloud Levels
  • Broken at 800' AGL
  • Overcast at 2,000' AGL

Mar-21@
14:00 UTC

Mar-21 @ 14:00 UTC

Mar-21@
18:00 UTC

Mar-21 @ 18:00 UTC

FM211400 33004KT 5SM -RA OVC030

From

From Standard forecast or significant change

Wind
  • 330° at 4 KTS
Conditions
Light Rain
Cloud Levels
  • Overcast at 3,000' AGL